Time;durP1;ratioP1;P1;durP2;ratioP2;P2;SDS_P1;SDS_P2;PMS_P1;PMS_P2;Temp;Humidity;BMP_temperature;BMP_pressure;BME280_temperature;BME280_humidity;BME280_pressure;Samples;Min_cycle;Max_cycle;Signal;HPM_P1;HPM_P2
2021/12/16 00:03:38;;;;;;;71.05;44.72;;;;;;;8.53;96.33;103305.75;5093383;28;20035;-80
2021/12/16 00:08:58;;;;;;;68.55;46.13;;;;;;;8.61;95.98;103319.75;5072583;28;20040;-82
2021/12/16 00:30:40;;;;;;;70.05;43.65;;;;;;;8.55;96.66;103313.69;5096563;28;20107;-83
2021/12/16 00:33:14;;;;;;;66.65;43.60;;;;;;;8.46;96.43;103303.22;5096508;28;20035;-81
2021/12/16 00:35:42;;;;;;;69.30;46.08;;;;;;;8.48;96.32;103301.44;5096670;28;20039;-78
2021/12/16 00:38:08;;;;;;;72.05;45.17;;;;;;;8.49;96.21;103312.00;5096454;28;20451;-78
2021/12/16 00:40:38;;;;;;;69.45;44.17;;;;;;;8.59;96.47;103326.03;5096604;28;20027;-81
2021/12/16 00:43:18;;;;;;;;;;;;;;;8.71;96.39;103330.28;5096806;28;20459;-82
2021/12/16 00:55:54;;;;;;;67.68;44.38;;;;;;;8.52;96.53;103324.34;5096541;28;20114;-80
2021/12/16 00:58:26;;;;;;;69.72;45.40;;;;;;;8.48;96.25;103304.94;5095727;28;20047;-82
2021/12/16 01:33:53;;;;;;;62.58;43.78;;;;;;;8.57;97.06;103336.63;5053252;28;20495;-82
2021/12/16 01:55:10;;;;;;;63.00;42.97;;;;;;;8.59;97.13;103363.16;5094289;28;20123;-81
2021/12/16 01:57:41;;;;;;;;;;;;;;;8.65;96.77;103368.38;5095304;28;20059;-80
2021/12/16 02:00:12;;;;;;;61.83;40.80;;;;;;;8.49;96.87;103343.81;5094990;28;20366;-79
2021/12/16 02:02:46;;;;;;;65.00;43.50;;;;;;;8.56;96.74;103360.50;5094602;28;20089;-80
2021/12/16 02:05:39;;;;;;;64.35;43.67;;;;;;;8.45;96.93;103338.59;5094605;28;20032;-80
2021/12/16 02:10:42;;;;;;;;;;;;;;;8.66;96.75;103366.59;5095156;28;20036;-80
2021/12/16 02:13:38;;;;;;;65.55;41.40;;;;;;;8.37;96.73;103331.56;5094236;28;19923;-82
2021/12/16 02:35:13;;;;;;;62.00;42.33;;;;;;;8.48;97.25;103363.28;5093805;28;20039;-82
2021/12/16 02:37:46;;;;;;;60.78;41.50;;;;;;;8.45;96.90;103354.50;5094325;28;20028;-78
2021/12/16 02:40:13;;;;;;;60.10;41.13;;;;;;;8.55;96.99;103375.56;5093272;28;20059;-81
2021/12/16 02:48:33;;;;;;;58.13;39.95;;;;;;;8.43;96.71;103369.56;5071736;28;20126;-82
2021/12/16 02:51:12;;;;;;;64.55;42.35;;;;;;;8.53;97.21;103390.66;5041294;28;20379;-81
2021/12/16 02:53:48;;;;;;;63.93;41.57;;;;;;;8.48;96.79;103381.88;5071463;28;20032;-79
2021/12/16 02:56:14;;;;;;;55.90;41.15;;;;;;;8.42;96.99;103366.03;5055821;28;20047;-83
2021/12/16 02:58:42;;;;;;;59.75;42.03;;;;;;;8.51;96.73;103388.91;5052500;28;20024;-82
2021/12/16 03:01:15;;;;;;;62.17;40.15;;;;;;;8.53;96.92;103398.59;5059257;28;20028;-83
2021/12/16 03:03:42;;;;;;;60.97;41.10;;;;;;;8.46;97.33;103369.50;5066880;28;20511;-81
2021/12/16 03:06:10;;;;;;;64.15;40.88;;;;;;;8.53;96.84;103390.66;5070238;28;20036;-81
2021/12/16 03:08:36;;;;;;;65.50;42.75;;;;;;;8.51;96.71;103376.50;5062236;28;20439;-83
2021/12/16 03:11:15;;;;;;;63.42;41.95;;;;;;;8.45;96.79;103378.38;5064512;28;20403;-82
2021/12/16 03:14:07;;;;;;;60.00;41.27;;;;;;;8.45;96.88;103373.94;5051369;28;20041;-81
2021/12/16 03:17:17;;;;;;;60.47;40.28;;;;;;;8.51;97.01;103373.00;5066439;28;20662;-80
2021/12/16 03:19:25;;;;;;;60.45;42.42;;;;;;;8.38;97.21;103365.19;5054016;28;20594;-79
2021/12/16 03:21:55;;;;;;;63.78;42.22;;;;;;;8.44;96.84;103372.16;5070212;28;20090;-81
2021/12/16 03:29:37;;;;;;;59.25;39.80;;;;;;;8.49;96.86;103380.94;5075035;28;20040;-81
2021/12/16 03:37:14;;;;;;;59.88;40.00;;;;;;;8.55;97.26;103395.91;5092788;28;20035;-80
2021/12/16 03:39:57;;;;;;;64.88;40.78;;;;;;;8.53;97.08;103379.13;5092738;28;20052;-81
2021/12/16 03:42:31;;;;;;;57.60;40.05;;;;;;;8.23;97.05;103346.78;5088878;28;20055;-81
2021/12/16 03:45:07;;;;;;;58.15;40.42;;;;;;;8.49;97.30;103385.38;5092504;28;20024;-81
2021/12/16 03:47:41;;;;;;;59.15;41.50;;;;;;;8.48;97.13;103386.28;5092526;28;20024;-80
2021/12/16 03:50:12;;;;;;;58.03;40.67;;;;;;;8.41;97.45;103377.50;5092282;28;20032;-81
2021/12/16 03:52:38;;;;;;;66.20;42.35;;;;;;;8.31;97.37;103366.13;5092039;28;20020;-79
2021/12/16 03:55:04;;;;;;;59.22;40.35;;;;;;;8.44;97.73;103396.03;5092798;28;20042;-81
2021/12/16 03:57:32;;;;;;;61.03;40.35;;;;;;;8.50;97.42;103409.25;5092465;28;20020;-80
2021/12/16 03:59:58;;;;;;;59.92;40.88;;;;;;;8.37;97.40;103391.69;5091271;28;20540;-83
2021/12/16 04:02:34;;;;;;;60.55;39.70;;;;;;;8.51;97.17;103415.44;5092161;28;20012;-81
2021/12/16 04:05:01;;;;;;;58.00;40.03;;;;;;;8.49;97.31;103411.91;5092633;28;20028;-79
2021/12/16 04:07:30;;;;;;;60.03;40.40;;;;;;;8.35;97.46;103391.72;5091084;28;20084;-80
2021/12/16 04:09:56;;;;;;;68.68;42.60;;;;;;;8.44;97.46;103398.69;5092598;28;20620;-80
2021/12/16 04:12:24;;;;;;;57.13;39.03;;;;;;;8.49;97.11;103410.13;5091863;28;20048;-80
2021/12/16 04:14:53;;;;;;;59.47;40.47;;;;;;;8.47;97.58;103405.75;5092316;28;20495;-80
2021/12/16 04:17:23;;;;;;;63.10;41.05;;;;;;;8.53;97.11;103405.66;5092352;28;20027;-79
2021/12/16 04:19:51;;;;;;;62.45;39.88;;;;;;;8.36;97.13;103393.47;5092727;28;20127;-80
2021/12/16 04:22:31;;;;;;;62.20;40.80;;;;;;;8.48;97.75;103411.03;5092202;28;20051;-80
2021/12/16 04:25:01;;;;;;;66.88;41.47;;;;;;;8.47;97.57;103405.75;5092063;28;20498;-79
2021/12/16 04:27:28;;;;;;;65.70;40.47;;;;;;;8.34;97.55;103387.31;5092166;28;20077;-82
2021/12/16 04:29:54;;;;;;;66.28;41.13;;;;;;;8.31;97.42;103390.00;5092461;28;20919;-79
2021/12/16 04:32:20;;;;;;;55.63;40.65;;;;;;;8.37;97.32;103399.66;5092091;28;20098;-82
2021/12/16 04:34:46;;;;;;;56.88;40.22;;;;;;;8.50;97.28;103411.00;5092212;28;20040;-79
2021/12/16 04:37:11;;;;;;;58.53;41.17;;;;;;;8.45;97.18;103403.13;5092424;28;20080;-80
2021/12/16 04:39:39;;;;;;;58.53;38.83;;;;;;;8.43;97.36;103407.56;5092570;28;20110;-79
2021/12/16 04:42:07;;;;;;;57.65;39.15;;;;;;;8.41;97.17;103409.34;5091820;28;20024;-80
2021/12/16 04:44:32;;;;;;;59.40;39.58;;;;;;;8.42;97.47;103403.16;5092344;28;20024;-79
2021/12/16 04:47:00;;;;;;;62.28;40.50;;;;;;;8.12;97.47;103352.25;5090345;28;20040;-78
2021/12/16 04:49:26;;;;;;;60.22;41.40;;;;;;;8.23;97.43;103370.66;5092543;28;20032;-79
2021/12/16 04:51:54;;;;;;;58.58;40.33;;;;;;;8.23;97.30;103378.59;5091895;28;20051;-79
2021/12/16 04:54:23;;;;;;;59.72;40.15;;;;;;;8.35;97.51;103406.75;5092191;28;20036;-80
2021/12/16 04:56:50;;;;;;;58.83;39.40;;;;;;;8.28;97.14;103400.63;5092018;28;20035;-81
2021/12/16 04:59:17;;;;;;;58.10;39.22;;;;;;;8.10;97.15;103369.94;5092048;28;20032;-83
2021/12/16 05:02:07;;;;;;;62.22;40.20;;;;;;;8.29;97.46;103397.09;5082619;28;20482;-81
2021/12/16 05:04:33;;;;;;;54.65;38.20;;;;;;;8.15;97.17;103389.31;5089355;28;20441;-80
2021/12/16 05:06:59;;;;;;;59.22;39.10;;;;;;;8.10;97.07;103387.63;5095797;28;20111;-82
2021/12/16 05:12:20;;;;;;;53.88;37.67;;;;;;;8.20;97.07;103397.19;5047742;28;20048;-79
2021/12/16 05:14:47;;;;;;;59.35;40.17;;;;;;;8.18;97.06;103396.34;5075347;28;20032;-78
2021/12/16 05:20:14;;;;;;;56.17;38.83;;;;;;;7.96;96.72;103396.59;4993533;28;20501;-79
2021/12/16 05:25:47;;;;;;;52.03;37.75;;;;;;;7.92;96.75;103394.88;4975022;28;20069;-80
2021/12/16 05:28:11;;;;;;;60.95;39.85;;;;;;;7.94;96.97;103414.28;4987466;28;20038;-81
2021/12/16 05:30:37;;;;;;;54.75;36.70;;;;;;;7.84;96.06;103409.97;4988181;28;20043;-81
2021/12/16 05:33:04;;;;;;;59.70;40.97;;;;;;;7.81;97.04;103403.84;4975890;28;20049;-79
2021/12/16 05:35:31;;;;;;;54.72;37.38;;;;;;;7.65;96.44;103400.47;4979022;28;20108;-81
2021/12/16 05:37:56;;;;;;;46.80;34.15;;;;;;;7.64;96.21;103401.34;4972021;28;20062;-80
2021/12/16 05:40:25;;;;;;;55.42;35.70;;;;;;;7.65;95.96;103419.00;4977174;28;20030;-78
2021/12/16 05:42:53;;;;;;;44.93;31.77;;;;;;;7.44;95.58;103388.28;4988173;28;20046;-81
2021/12/16 05:45:19;;;;;;;47.17;32.45;;;;;;;7.61;95.88;103420.78;4975314;28;20064;-80
2021/12/16 05:47:45;;;;;;;42.22;30.80;;;;;;;7.39;95.78;103393.63;4989052;28;20034;-80
2021/12/16 05:50:11;;;;;;;50.13;35.47;;;;;;;7.49;95.53;103428.84;4977796;28;20414;-80
2021/12/16 05:52:38;;;;;;;45.63;33.67;;;;;;;7.48;95.47;103435.91;4974150;28;20038;-79
2021/12/16 05:55:06;;;;;;;49.70;33.80;;;;;;;7.39;95.73;103440.41;4987520;28;20053;-83
2021/12/16 05:57:32;;;;;;;47.75;35.42;;;;;;;7.31;95.27;103434.28;5053699;28;20033;-82
2021/12/16 05:59:57;;;;;;;110.20;33.30;;;;;;;7.21;94.46;103444.09;5074597;28;20028;-79
2021/12/16 06:02:23;;;;;;;106.22;32.83;;;;;;;7.22;94.66;103452.00;5074327;28;20158;-80
2021/12/16 06:04:50;;;;;;;45.65;30.77;;;;;;;7.23;94.71;103451.09;5074101;28;20032;-79
2021/12/16 06:07:17;;;;;;;47.72;31.50;;;;;;;7.08;94.08;103447.69;5074444;28;20491;-81
2021/12/16 06:09:44;;;;;;;47.92;33.22;;;;;;;6.92;94.56;103442.50;5056527;28;20024;-79
2021/12/16 06:12:10;;;;;;;46.90;31.88;;;;;;;6.82;94.48;103441.69;5081405;28;20040;-80
2021/12/16 06:22:49;;;;;;;44.30;31.33;;;;;;;6.91;94.12;103464.56;5094563;28;20039;-80
2021/12/16 06:28:05;;;;;;;40.33;27.88;;;;;;;6.78;93.55;103476.06;5094466;28;20035;-80
2021/12/16 06:30:41;;;;;;;49.08;23.20;;;;;;;6.75;93.56;103473.44;5094059;28;20024;-80
2021/12/16 06:33:09;;;;;;;38.40;28.10;;;;;;;6.72;93.80;103479.63;5094439;28;20139;-82
2021/12/16 06:35:35;;;;;;;42.90;31.70;;;;;;;6.71;93.59;103488.44;5093953;28;20028;-81
2021/12/16 06:38:01;;;;;;;41.28;27.75;;;;;;;6.69;93.09;103479.63;5093986;28;20419;-78
2021/12/16 06:40:27;;;;;;;42.58;30.73;;;;;;;6.68;93.38;103472.59;5093831;28;20062;-81
2021/12/16 06:42:55;;;;;;;39.83;30.35;;;;;;;6.59;93.35;103462.94;5093762;28;20051;-80
2021/12/16 06:45:26;;;;;;;39.03;29.67;;;;;;;6.59;93.18;103483.22;5094164;28;20023;-79
2021/12/16 06:47:58;;;;;;;47.42;32.15;;;;;;;6.43;93.26;103455.94;5093814;28;20510;-81
2021/12/16 06:50:35;;;;;;;49.75;30.35;;;;;;;6.54;92.76;103480.59;5078428;28;20047;-79
2021/12/16 06:53:02;;;;;;;38.28;28.15;;;;;;;6.42;92.99;103466.53;5093891;28;20093;-81
2021/12/16 06:55:42;;;;;;;42.08;24.48;;;;;;;6.33;93.06;103459.50;5093882;28;20016;-80
2021/12/16 07:00:51;;;;;;;44.25;31.55;;;;;;;6.34;92.87;103466.56;5093534;28;20100;-79
2021/12/16 07:03:23;;;;;;;109.00;28.73;;;;;;;6.35;91.64;103486.78;5093178;28;20030;-79
2021/12/16 07:05:53;;;;;;;46.00;27.67;;;;;;;6.27;91.60;103492.13;5093380;28;20024;-81
2021/12/16 07:08:20;;;;;;;;;;;;;;;6.46;92.35;103484.13;5093755;28;20451;-82
2021/12/16 07:10:48;;;;;;;44.65;29.85;;;;;;;6.30;92.17;103472.75;5093607;28;19951;-80
2021/12/16 07:13:19;;;;;;;50.90;32.07;;;;;;;6.18;92.04;103470.09;5092780;28;20083;-80
2021/12/16 07:15:47;;;;;;;52.78;31.95;;;;;;;6.22;91.43;103506.22;5093344;28;20102;-79
2021/12/16 07:18:12;;;;;;;51.13;30.40;;;;;;;6.29;92.03;103500.03;5092158;28;20031;-79
2021/12/16 07:20:37;;;;;;;57.08;34.83;;;;;;;5.98;91.95;103476.31;5093563;28;20378;-79
2021/12/16 07:23:05;;;;;;;62.22;33.60;;;;;;;6.17;92.00;103524.72;5091455;28;20074;-81
2021/12/16 07:25:32;;;;;;;48.47;31.30;;;;;;;6.12;91.50;103524.75;5089363;28;20434;-79
2021/12/16 07:27:58;;;;;;;44.45;30.75;;;;;;;6.09;91.48;103513.31;5091807;28;20077;-79
2021/12/16 07:30:25;;;;;;;46.05;30.60;;;;;;;5.91;91.94;103488.63;5093472;28;20027;-82
2021/12/16 07:32:51;;;;;;;51.67;32.38;;;;;;;5.85;91.43;103493.03;5092908;28;20040;-81
2021/12/16 07:35:21;;;;;;;45.15;31.60;;;;;;;6.03;91.56;103542.34;5092978;28;20042;-81
2021/12/16 07:37:48;;;;;;;49.53;31.50;;;;;;;5.99;91.72;103546.75;5092700;28;20044;-80
2021/12/16 07:40:16;;;;;;;48.53;30.30;;;;;;;6.04;91.72;103546.78;5093152;28;20038;-80
2021/12/16 07:42:46;;;;;;;46.00;31.75;;;;;;;5.87;91.73;103534.41;5092401;28;20487;-83
2021/12/16 07:45:15;;;;;;;43.55;30.67;;;;;;;5.82;91.84;103525.59;5092913;28;20402;-82
2021/12/16 07:47:40;;;;;;;42.65;29.77;;;;;;;5.69;91.67;103524.72;5092468;28;20509;-81
2021/12/16 07:50:07;;;;;;;44.80;31.55;;;;;;;5.88;91.86;103557.31;5091259;28;20067;-80
2021/12/16 07:52:34;;;;;;;49.17;32.97;;;;;;;5.92;92.53;103547.63;5091625;28;20463;-81
2021/12/16 07:55:01;;;;;;;51.17;34.35;;;;;;;6.08;92.01;103577.56;5092404;28;20073;-81
2021/12/16 07:57:26;;;;;;;42.67;31.17;;;;;;;5.90;91.38;103563.44;5090893;28;20036;-82
2021/12/16 07:59:52;;;;;;;43.70;30.73;;;;;;;5.89;91.56;103560.81;5092208;28;20077;-80
2021/12/16 08:02:17;;;;;;;47.53;30.40;;;;;;;5.84;91.45;103565.22;5090606;28;20083;-83
2021/12/16 08:04:45;;;;;;;48.10;31.77;;;;;;;5.85;91.20;103570.50;5090592;28;20430;-83
2021/12/16 08:07:14;;;;;;;38.08;29.00;;;;;;;5.90;91.18;103600.44;5084767;28;20391;-82
2021/12/16 08:09:40;;;;;;;41.22;28.52;;;;;;;5.81;91.46;103573.13;5090990;28;20150;-82
2021/12/16 08:12:08;;;;;;;39.47;28.95;;;;;;;5.74;91.59;103574.03;5092669;28;20475;-81
2021/12/16 08:14:33;;;;;;;39.00;27.92;;;;;;;5.81;91.20;103586.34;5092643;28;20134;-80
2021/12/16 08:16:59;;;;;;;43.03;29.25;;;;;;;5.71;90.78;103590.75;5091721;28;20136;-79
2021/12/16 08:19:24;;;;;;;37.50;29.17;;;;;;;5.69;91.10;103587.22;5091501;28;20486;-81
2021/12/16 08:21:50;;;;;;;47.08;29.25;;;;;;;5.86;90.93;103611.00;5092270;28;20069;-79
2021/12/16 08:24:16;;;;;;;41.35;29.50;;;;;;;5.89;91.47;103617.16;5091094;28;20047;-78
2021/12/16 08:26:47;;;;;;;41.42;29.30;;;;;;;5.70;91.24;103592.47;5092687;28;20496;-80
2021/12/16 08:29:13;;;;;;;40.13;28.05;;;;;;;5.59;90.85;103590.69;5091010;28;20762;-81
2021/12/16 08:31:39;;;;;;;41.03;30.17;;;;;;;5.81;90.77;103626.81;5092568;28;20028;-78
2021/12/16 08:34:05;;;;;;;42.70;29.95;;;;;;;5.72;90.94;103620.66;5092691;28;20032;-81
2021/12/16 08:36:32;;;;;;;38.40;29.33;;;;;;;5.78;91.04;103634.75;5092449;28;20040;-81
2021/12/16 08:38:58;;;;;;;42.97;30.73;;;;;;;5.76;91.35;103630.34;5091431;28;20032;-79
2021/12/16 08:41:29;;;;;;;43.78;28.95;;;;;;;5.79;91.79;103631.22;5096662;28;20093;-81
2021/12/16 08:43:54;;;;;;;45.75;30.45;;;;;;;5.59;91.57;103604.81;5095048;28;20123;-79
2021/12/16 08:46:22;;;;;;;50.38;31.63;;;;;;;5.80;91.88;103643.56;5096560;28;20055;-77
2021/12/16 08:48:49;;;;;;;47.15;31.45;;;;;;;5.71;91.63;103603.94;5096349;28;20039;-79
2021/12/16 08:51:17;;;;;;;45.97;31.00;;;;;;;5.87;91.94;103625.97;5096550;28;20028;-79
2021/12/16 08:53:43;;;;;;;42.20;30.52;;;;;;;5.85;91.25;103618.06;5096101;28;20028;-79
2021/12/16 08:56:09;;;;;;;47.70;31.48;;;;;;;5.97;91.85;103626.88;5094976;28;20020;-81
2021/12/16 08:58:37;;;;;;;45.25;30.75;;;;;;;5.94;91.36;103619.81;5096128;28;20035;-81
2021/12/16 09:01:25;;;;;;;49.22;31.95;;;;;;;6.23;91.95;103651.56;5095901;28;20059;-79
2021/12/16 09:03:50;;;;;;;43.63;30.25;;;;;;;6.20;92.16;103669.19;5095973;28;20032;-79
2021/12/16 09:06:16;;;;;;;42.03;30.50;;;;;;;6.09;91.55;103645.41;5096052;28;20036;-80
2021/12/16 09:08:42;;;;;;;47.28;31.90;;;;;;;6.26;92.00;103661.25;5094894;28;20390;-83
2021/12/16 09:11:09;;;;;;;43.25;30.88;;;;;;;6.34;91.79;103667.44;5095753;28;20386;-80
2021/12/16 09:13:39;;;;;;;45.35;31.13;;;;;;;6.36;92.09;103673.59;5095765;28;20142;-80
2021/12/16 09:16:08;;;;;;;46.15;32.47;;;;;;;6.42;91.86;103663.03;5095894;28;20031;-81
2021/12/16 09:18:41;;;;;;;46.45;30.77;;;;;;;6.27;92.09;103633.97;5095879;28;20058;-79
2021/12/16 09:21:09;;;;;;;43.00;31.60;;;;;;;6.49;92.26;103661.25;5095691;28;20165;-81
2021/12/16 09:23:35;;;;;;;50.58;33.10;;;;;;;6.45;92.90;103655.09;5095778;28;20065;-80
2021/12/16 09:26:01;;;;;;;48.60;32.08;;;;;;;6.68;92.72;103670.94;5095194;28;20504;-81
2021/12/16 09:28:27;;;;;;;48.00;32.67;;;;;;;6.71;92.64;103663.00;5095125;28;20028;-83
2021/12/16 09:30:53;;;;;;;47.38;32.10;;;;;;;6.79;92.95;103648.00;5093728;28;20097;-79
2021/12/16 09:33:22;;;;;;;59.70;38.95;;;;;;;6.82;94.55;103636.50;5095592;28;20032;-81
2021/12/16 09:35:51;;;;;;;50.50;35.60;;;;;;;6.98;94.05;103664.72;5095481;28;20032;-78
2021/12/16 09:38:17;;;;;;;48.33;35.30;;;;;;;7.08;94.12;103662.91;5095311;28;20047;-81
2021/12/16 09:40:51;;;;;;;52.50;37.53;;;;;;;7.18;94.42;103654.06;5095566;28;20024;-81
2021/12/16 09:43:24;;;;;;;48.55;34.10;;;;;;;7.33;93.92;103674.31;5075070;28;20475;-79
2021/12/16 09:45:52;;;;;;;52.10;36.75;;;;;;;7.48;94.39;103674.22;5075211;28;20024;-81
2021/12/16 09:48:18;;;;;;;57.20;38.78;;;;;;;7.62;94.20;103660.94;5074910;28;20055;-79
2021/12/16 09:50:43;;;;;;;54.95;39.53;;;;;;;7.88;94.74;103666.09;5073299;28;20060;-80
2021/12/16 09:53:09;;;;;;;53.65;37.38;;;;;;;7.87;93.87;103650.19;5091352;28;20034;-80
2021/12/16 09:55:35;;;;;;;50.20;36.42;;;;;;;8.19;93.69;103674.69;5095109;28;20020;-80
2021/12/16 09:58:03;;;;;;;50.80;38.08;;;;;;;8.32;93.63;103654.25;5095384;28;20425;-82
2021/12/16 10:00:30;;;;;;;50.70;36.50;;;;;;;8.23;92.94;103611.03;5095032;28;20368;-83
2021/12/16 10:02:59;;;;;;;49.30;36.63;;;;;;;8.87;92.52;103658.19;5094590;28;20368;-80
2021/12/16 10:05:26;;;;;;;51.80;38.75;;;;;;;9.21;91.90;103666.66;5094590;28;20027;-80
2021/12/16 10:07:52;;;;;;;49.45;36.08;;;;;;;9.47;90.46;103671.66;5094451;28;20036;-79
2021/12/16 10:10:24;;;;;;;45.03;33.78;;;;;;;9.58;88.97;103665.31;5094173;28;20485;-80
2021/12/16 10:12:51;;;;;;;45.30;33.97;;;;;;;9.59;89.10;103657.34;5086614;28;20136;-79
2021/12/16 10:18:05;;;;;;;44.92;32.85;;;;;;;9.50;88.88;103666.31;5080517;28;20056;-79
2021/12/16 10:20:56;;;;;;;49.17;33.45;;;;;;;9.90;90.21;103672.84;5061380;28;20418;-82
2021/12/16 10:23:44;;;;;;;42.90;32.72;;;;;;;10.15;88.38;103681.34;4980658;28;20049;-80
2021/12/16 10:26:17;;;;;;;48.33;32.90;;;;;;;10.53;87.36;103686.06;4983574;28;20027;-79
2021/12/16 10:28:46;;;;;;;46.25;32.53;;;;;;;10.69;87.32;103682.19;4982405;28;20042;-81
2021/12/16 10:31:17;;;;;;;43.75;31.67;;;;;;;11.19;86.21;103670.63;4980786;28;20039;-78
2021/12/16 10:33:47;;;;;;;40.47;30.08;;;;;;;11.53;84.26;103668.09;4984052;28;20584;-81
2021/12/16 10:36:24;;;;;;;;;;;;;;;11.79;87.45;103675.53;4993015;28;20053;-77
2021/12/16 10:39:04;;;;;;;39.28;29.45;;;;;;;11.83;83.43;103671.91;4973410;28;19937;-79
2021/12/16 10:41:37;;;;;;;37.75;26.17;;;;;;;12.51;81.51;103663.16;4978101;28;20030;-78
2021/12/16 10:44:13;;;;;;;37.60;27.23;;;;;;;12.81;79.66;103634.75;4976721;28;20027;-80
2021/12/16 10:46:45;;;;;;;33.15;25.27;;;;;;;12.83;78.22;103648.94;4977585;28;20038;-81
2021/12/16 10:49:15;;;;;;;37.55;26.60;;;;;;;12.90;78.96;103671.03;4972535;28;20488;-80
2021/12/16 10:51:42;;;;;;;;;;;;;;;13.56;83.80;103667.38;4972846;28;20536;-79
2021/12/16 10:54:24;;;;;;;30.42;22.95;;;;;;;14.15;77.85;103676.19;4971059;28;20072;-78
2021/12/16 10:56:58;;;;;;;34.22;22.98;;;;;;;14.54;74.08;103674.03;4972469;28;20035;-79
2021/12/16 10:59:38;;;;;;;29.65;22.40;;;;;;;14.51;74.44;103675.00;4983899;28;20031;-79
2021/12/16 11:02:26;;;;;;;34.85;20.88;;;;;;;14.09;73.76;103679.97;5064191;28;20021;-80
2021/12/16 11:04:56;;;;;;;30.77;19.08;;;;;;;13.54;73.41;103679.03;5058355;28;20040;-80
2021/12/16 11:07:28;;;;;;;27.52;18.48;;;;;;;13.47;75.07;103677.44;5065576;28;20056;-79
2021/12/16 11:09:53;;;;;;;27.20;19.45;;;;;;;13.35;74.07;103679.56;5062553;28;20090;-79
2021/12/16 11:12:47;;;;;;;27.70;19.67;;;;;;;13.64;76.59;103678.66;5073012;28;20040;-79
2021/12/16 11:15:20;;;;;;;24.27;18.42;;;;;;;13.63;73.90;103666.25;5061745;28;20785;-79
2021/12/16 11:18:13;;;;;;;26.75;19.15;;;;;;;13.90;75.07;103679.66;5063729;28;20033;-81
2021/12/16 11:20:49;;;;;;;27.00;19.88;;;;;;;13.91;73.52;103691.25;5043337;28;20036;-81
2021/12/16 11:23:21;;;;;;;26.40;19.98;;;;;;;13.82;71.56;103682.63;5064507;28;20016;-81
2021/12/16 11:25:50;;;;;;;28.85;20.45;;;;;;;13.79;71.47;103693.38;5076909;28;20029;-80
2021/12/16 11:28:16;;;;;;;;;;;;;;;14.34;74.76;103687.19;5069086;28;20032;-81
2021/12/16 11:31:01;;;;;;;31.15;20.98;;;;;;;14.59;72.80;103689.94;5055250;28;19923;-82
2021/12/16 11:33:30;;;;;;;30.77;20.70;;;;;;;14.36;70.45;103685.34;5072308;28;20041;-80
2021/12/16 11:36:25;;;;;;;30.93;22.03;;;;;;;14.13;72.72;103686.09;5072766;28;20033;-80
2021/12/16 11:39:05;;;;;;;27.27;18.70;;;;;;;13.85;71.97;103686.97;5072918;28;20321;-80
2021/12/16 11:41:40;;;;;;;;;;;;;;;13.97;75.37;103691.06;5073261;28;20019;-82
2021/12/16 11:44:17;;;;;;;26.15;18.52;;;;;;;13.38;72.21;103682.16;5072817;28;19939;-79
2021/12/16 11:46:43;;;;;;;24.73;17.20;;;;;;;13.24;73.00;103678.09;5073035;28;20032;-80
2021/12/16 11:49:21;;;;;;;23.13;16.83;;;;;;;13.37;74.23;103676.84;5072768;28;20529;-79
2021/12/16 11:52:06;;;;;;;27.90;16.65;;;;;;;13.64;74.76;103673.31;5054524;28;20127;-80
2021/12/16 11:54:48;;;;;;;24.85;15.75;;;;;;;14.04;72.11;103681.91;5052008;28;20564;-80
2021/12/16 11:57:37;;;;;;;23.70;16.58;;;;;;;14.98;69.91;103666.22;5052752;28;20036;-82
2021/12/16 12:00:12;;;;;;;23.88;16.55;;;;;;;15.34;68.90;103665.78;5052636;28;20074;-79
2021/12/16 12:02:42;;;;;;;22.52;15.68;;;;;;;16.05;64.45;103672.81;5052850;28;20029;-80
2021/12/16 12:05:28;;;;;;;21.50;16.05;;;;;;;15.83;66.39;103669.28;5052310;28;20086;-80
2021/12/16 12:08:00;;;;;;;20.63;15.32;;;;;;;15.48;66.30;103673.31;5052521;28;20040;-82
2021/12/16 12:10:47;;;;;;;22.60;14.70;;;;;;;15.28;68.02;103671.38;5034641;28;20551;-82
2021/12/16 12:13:24;;;;;;;24.30;16.33;;;;;;;14.66;68.60;103638.78;5066293;28;20056;-80
2021/12/16 12:15:55;;;;;;;21.77;15.93;;;;;;;14.54;68.24;103677.59;5099698;28;20027;-84
2021/12/16 12:18:41;;;;;;;23.25;16.40;;;;;;;14.50;69.33;103672.34;5099346;28;20043;-82
2021/12/16 12:21:21;;;;;;;22.83;14.82;;;;;;;14.20;69.96;103675.13;5099679;28;20024;-82
2021/12/16 12:23:52;;;;;;;22.77;14.07;;;;;;;13.98;68.76;103680.31;5099345;28;20046;-81
2021/12/16 12:26:20;;;;;;;18.45;14.38;;;;;;;13.98;68.46;103671.41;5098034;28;20035;-78
2021/12/16 12:28:48;;;;;;;23.45;14.27;;;;;;;13.69;69.02;103661.63;5099426;28;20028;-80
2021/12/16 12:31:15;;;;;;;26.00;15.63;;;;;;;13.47;70.68;103670.31;5099214;28;20028;-80
2021/12/16 12:33:42;;;;;;;19.95;13.98;;;;;;;13.28;71.39;103647.72;5099096;28;20102;-81
2021/12/16 12:36:08;;;;;;;18.80;14.35;;;;;;;13.29;71.47;103646.78;5099239;28;20042;-81
2021/12/16 12:38:35;;;;;;;19.58;15.02;;;;;;;13.22;71.89;103661.22;5098858;28;20120;-78
2021/12/16 12:41:01;;;;;;;20.88;14.80;;;;;;;13.17;72.02;103662.22;5098974;28;20051;-80
2021/12/16 12:43:26;;;;;;;24.75;14.40;;;;;;;12.91;71.55;103627.34;5098973;28;20028;-80
2021/12/16 12:45:51;;;;;;;24.13;14.93;;;;;;;12.75;72.76;103655.41;5099086;28;20039;-79
2021/12/16 12:48:19;;;;;;;17.88;14.25;;;;;;;12.53;73.08;103648.00;5099224;28;20221;-79
2021/12/16 12:50:50;;;;;;;24.83;15.57;;;;;;;12.56;73.92;103666.59;5099031;28;20161;-80
2021/12/16 12:53:24;;;;;;;28.38;15.55;;;;;;;12.51;74.10;103660.50;5098030;28;20127;-82
2021/12/16 12:55:56;;;;;;;20.27;15.30;;;;;;;12.35;75.25;103646.66;5098581;28;20032;-79
2021/12/16 12:58:25;;;;;;;21.42;15.73;;;;;;;12.39;75.04;103635.00;5098689;28;20114;-81
2021/12/16 13:01:01;;;;;;;20.55;15.55;;;;;;;12.42;75.13;103605.56;5098970;28;20020;-86
2021/12/16 13:03:31;;;;;;;25.30;16.23;;;;;;;13.17;74.03;103656.00;5086605;28;20028;-80
2021/12/16 13:06:26;;;;;;;25.45;15.63;;;;;;;14.07;72.24;103644.34;5097054;28;20031;-78
2021/12/16 13:08:51;;;;;;;20.95;13.63;;;;;;;15.04;67.48;103638.31;5098696;28;20386;-82
2021/12/16 13:11:29;;;;;;;22.38;14.13;;;;;;;16.28;64.91;103649.53;5098811;28;20028;-78
2021/12/16 13:13:59;;;;;;;17.52;13.00;;;;;;;17.15;60.24;103655.59;5098837;28;20125;-80
2021/12/16 13:28:26;;;;;;;12.88;9.15;;;;;;;19.32;50.57;103641.00;5095545;28;20500;-83
2021/12/16 13:31:00;;;;;;;12.30;8.55;;;;;;;18.44;50.51;103646.63;5095248;28;20020;-81
2021/12/16 13:33:53;;;;;;;16.08;8.82;;;;;;;17.90;54.32;103655.59;5095511;28;20028;-79
2021/12/16 13:36:28;;;;;;;13.05;8.73;;;;;;;17.16;54.23;103652.81;5095549;28;20103;-82
2021/12/16 13:38:55;;;;;;;13.98;9.93;;;;;;;16.40;56.21;103643.63;5095083;28;20158;-81
2021/12/16 13:41:27;;;;;;;12.98;9.18;;;;;;;15.93;58.45;103654.53;5095152;28;20030;-83
2021/12/16 13:44:14;;;;;;;14.20;9.60;;;;;;;15.61;60.32;103655.78;5095317;28;20047;-80
2021/12/16 13:47:05;;;;;;;14.05;9.77;;;;;;;15.00;60.65;103653.66;5093461;28;20039;-81
2021/12/16 14:03:48;;;;;;;15.80;11.32;;;;;;;13.00;68.61;103656.50;5095368;28;20111;-82
2021/12/16 14:06:27;;;;;;;16.55;11.18;;;;;;;12.55;68.72;103615.91;5074680;28;20024;-82
2021/12/16 14:08:54;;;;;;;13.68;10.45;;;;;;;12.61;68.96;103653.97;5074463;28;20103;-79
2021/12/16 14:17:50;;;;;;;18.33;12.70;;;;;;;12.26;70.91;103662.88;5094659;28;20032;-79
2021/12/16 14:23:19;;;;;;;20.35;12.68;;;;;;;11.88;71.67;103654.00;5094372;28;20097;-79
2021/12/16 14:31:47;;;;;;;22.10;12.32;;;;;;;11.63;72.29;103652.81;5094223;28;20047;-82
2021/12/16 14:42:20;;;;;;;;;;;;;;;11.70;73.16;103678.41;5094450;28;20079;-79
2021/12/16 14:50:40;;;;;;;16.80;10.45;;;;;;;11.35;74.12;103688.03;5093915;28;20032;-80
2021/12/16 14:53:20;;;;;;;16.60;10.63;;;;;;;11.25;74.56;103694.47;5070994;28;20279;-79
2021/12/16 14:55:47;;;;;;;14.70;10.57;;;;;;;11.14;75.07;103689.34;5054485;28;20098;-81
2021/12/16 14:58:13;;;;;;;18.17;10.43;;;;;;;10.94;75.06;103675.53;5070347;28;20044;-82